Farnsworth, Texas
Current Conditions -  °F | °C
As of 4:15 PM on Saturday 25 Oct 2014 (Local Time) from KPYX Reporting Station
Clear Clear  
Wind Chill: 88°   Ceiling: Unl
Heat Index: 88°   Visibility: 10mi
Dew Point: 45°   Wind: 16mph
Humidity: 22%   Direction: 200°SSW
Pressure: 30.04"   Gusts: NA
Location:  36.32°N, 100.97°W
Report Text: KPYX 252115Z AUTO 20014KT 10SM CLR 31/07 A3004 RMK AO2 T03110070
Loading
Personal Weather Stations






























Interactive Weather Map
Tropical Storm Tracking
New forecast layout! Learn more

10-Day Weather Forecast

Advertisements
Track Severe Weather on mobile